sensor_id;sensor_type;location;lat;lon;timestamp;pressure;altitude;pressure_sealevel;temperature;humidity
48606;BME280;8482;54.396;18.590;2023-04-27T00:00:47;101317.66;;;6.10;60.85
48606;BME280;8482;54.396;18.590;2023-04-27T00:03:13;101307.34;;;6.06;61.15
48606;BME280;8482;54.396;18.590;2023-04-27T00:05:38;101317.13;;;6.04;62.12
48606;BME280;8482;54.396;18.590;2023-04-27T00:08:07;101312.69;;;6.04;61.84
48606;BME280;8482;54.396;18.590;2023-04-27T00:10:33;101311.84;;;6.04;61.62
48606;BME280;8482;54.396;18.590;2023-04-27T00:13:00;101315.50;;;6.01;62.01
48606;BME280;8482;54.396;18.590;2023-04-27T00:15:27;101315.31;;;6.04;61.90
48606;BME280;8482;54.396;18.590;2023-04-27T00:17:54;101312.53;;;6.07;61.84
48606;BME280;8482;54.396;18.590;2023-04-27T00:20:20;101314.09;;;6.11;61.81
48606;BME280;8482;54.396;18.590;2023-04-27T00:22:46;101314.78;;;6.15;62.01
48606;BME280;8482;54.396;18.590;2023-04-27T00:25:12;101310.53;;;6.12;62.04
48606;BME280;8482;54.396;18.590;2023-04-27T00:27:37;101311.31;;;6.15;61.76
48606;BME280;8482;54.396;18.590;2023-04-27T00:30:04;101317.41;;;6.15;62.29
48606;BME280;8482;54.396;18.590;2023-04-27T00:32:31;101323.53;;;6.16;62.18
48606;BME280;8482;54.396;18.590;2023-04-27T00:34:56;101315.78;;;6.12;62.13
48606;BME280;8482;54.396;18.590;2023-04-27T00:37:22;101325.41;;;6.13;61.89
48606;BME280;8482;54.396;18.590;2023-04-27T00:39:48;101328.19;;;6.10;62.28
48606;BME280;8482;54.396;18.590;2023-04-27T00:42:14;101316.88;;;6.08;62.37
48606;BME280;8482;54.396;18.590;2023-04-27T00:44:45;101318.66;;;6.08;62.08
48606;BME280;8482;54.396;18.590;2023-04-27T00:47:11;101310.97;;;6.03;62.45
48606;BME280;8482;54.396;18.590;2023-04-27T00:49:37;101315.63;;;5.98;62.14
48606;BME280;8482;54.396;18.590;2023-04-27T00:52:04;101322.59;;;5.99;62.83
48606;BME280;8482;54.396;18.590;2023-04-27T00:54:31;101325.22;;;5.99;63.42
48606;BME280;8482;54.396;18.590;2023-04-27T00:56:56;101324.34;;;5.98;62.49
48606;BME280;8482;54.396;18.590;2023-04-27T00:59:24;101328.00;;;5.96;62.94
48606;BME280;8482;54.396;18.590;2023-04-27T01:01:50;101324.44;;;5.97;63.51
48606;BME280;8482;54.396;18.590;2023-04-27T01:04:17;101331.47;;;5.96;63.52
48606;BME280;8482;54.396;18.590;2023-04-27T01:06:43;101333.34;;;5.94;63.38
48606;BME280;8482;54.396;18.590;2023-04-27T01:09:08;101325.38;;;5.96;63.53
48606;BME280;8482;54.396;18.590;2023-04-27T01:11:35;101328.09;;;5.94;63.52
48606;BME280;8482;54.396;18.590;2023-04-27T01:14:05;101328.84;;;5.96;63.41
48606;BME280;8482;54.396;18.590;2023-04-27T01:16:33;101329.84;;;5.94;63.90
48606;BME280;8482;54.396;18.590;2023-04-27T01:18:59;101328.47;;;5.87;64.02
48606;BME280;8482;54.396;18.590;2023-04-27T01:21:26;101337.91;;;5.91;63.96
48606;BME280;8482;54.396;18.590;2023-04-27T01:23:52;101325.06;;;5.85;64.75
48606;BME280;8482;54.396;18.590;2023-04-27T01:26:18;101331.53;;;5.77;64.92
48606;BME280;8482;54.396;18.590;2023-04-27T01:28:45;101335.97;;;5.77;65.06
48606;BME280;8482;54.396;18.590;2023-04-27T01:31:11;101329.63;;;5.81;64.80
48606;BME280;8482;54.396;18.590;2023-04-27T01:33:38;101334.91;;;5.81;64.99
48606;BME280;8482;54.396;18.590;2023-04-27T01:36:05;101343.00;;;5.76;65.27
48606;BME280;8482;54.396;18.590;2023-04-27T01:38:35;101338.69;;;5.75;65.03
48606;BME280;8482;54.396;18.590;2023-04-27T01:41:03;101338.69;;;5.75;65.17
48606;BME280;8482;54.396;18.590;2023-04-27T01:43:30;101346.59;;;5.75;65.45
48606;BME280;8482;54.396;18.590;2023-04-27T01:46:08;101339.91;;;5.68;65.59
48606;BME280;8482;54.396;18.590;2023-04-27T01:48:35;101341.06;;;5.62;65.73
48606;BME280;8482;54.396;18.590;2023-04-27T01:51:01;101341.84;;;5.64;65.55
48606;BME280;8482;54.396;18.590;2023-04-27T01:53:28;101347.88;;;5.66;65.86
48606;BME280;8482;54.396;18.590;2023-04-27T01:55:54;101346.22;;;5.64;66.39
48606;BME280;8482;54.396;18.590;2023-04-27T01:58:20;101347.09;;;5.64;66.22
48606;BME280;8482;54.396;18.590;2023-04-27T02:00:46;101348.72;;;5.67;66.22
48606;BME280;8482;54.396;18.590;2023-04-27T02:03:12;101356.69;;;5.65;65.97
48606;BME280;8482;54.396;18.590;2023-04-27T02:05:38;101358.41;;;5.66;66.06
48606;BME280;8482;54.396;18.590;2023-04-27T02:08:04;101347.78;;;5.68;66.13
48606;BME280;8482;54.396;18.590;2023-04-27T02:10:30;101348.84;;;5.64;65.67
48606;BME280;8482;54.396;18.590;2023-04-27T02:12:56;101344.47;;;5.64;65.94
48606;BME280;8482;54.396;18.590;2023-04-27T02:15:22;101356.97;;;5.59;66.26
48606;BME280;8482;54.396;18.590;2023-04-27T02:17:48;101349.03;;;5.61;66.04
48606;BME280;8482;54.396;18.590;2023-04-27T02:20:14;101343.13;;;5.56;66.23
48606;BME280;8482;54.396;18.590;2023-04-27T02:22:41;101343.13;;;5.56;66.25
48606;BME280;8482;54.396;18.590;2023-04-27T02:25:09;101341.28;;;5.58;66.44
48606;BME280;8482;54.396;18.590;2023-04-27T02:27:40;101338.69;;;5.56;65.52
48606;BME280;8482;54.396;18.590;2023-04-27T02:30:10;101341.72;;;5.48;66.27
48606;BME280;8482;54.396;18.590;2023-04-27T02:32:37;101351.47;;;5.46;66.58
48606;BME280;8482;54.396;18.590;2023-04-27T02:35:03;101356.09;;;5.41;66.35
48606;BME280;8482;54.396;18.590;2023-04-27T02:37:29;101353.53;;;5.40;66.77
48606;BME280;8482;54.396;18.590;2023-04-27T02:39:55;101347.63;;;5.34;67.14
48606;BME280;8482;54.396;18.590;2023-04-27T02:42:21;101348.66;;;5.32;67.28
48606;BME280;8482;54.396;18.590;2023-04-27T02:44:47;101351.19;;;5.33;67.08
48606;BME280;8482;54.396;18.590;2023-04-27T02:47:13;101356.53;;;5.32;67.19
48606;BME280;8482;54.396;18.590;2023-04-27T02:49:39;101360.94;;;5.31;67.89
48606;BME280;8482;54.396;18.590;2023-04-27T02:52:05;101361.00;;;5.30;67.14
48606;BME280;8482;54.396;18.590;2023-04-27T02:54:32;101358.38;;;5.30;68.03
48606;BME280;8482;54.396;18.590;2023-04-27T02:56:58;101360.22;;;5.28;67.97
48606;BME280;8482;54.396;18.590;2023-04-27T02:59:24;101376.00;;;5.28;67.76
48606;BME280;8482;54.396;18.590;2023-04-27T03:01:50;101374.16;;;5.30;67.93
48606;BME280;8482;54.396;18.590;2023-04-27T03:04:17;101375.09;;;5.29;68.16
48606;BME280;8482;54.396;18.590;2023-04-27T03:06:43;101381.28;;;5.28;68.12
48606;BME280;8482;54.396;18.590;2023-04-27T03:09:10;101380.56;;;5.24;68.26
48606;BME280;8482;54.396;18.590;2023-04-27T03:11:36;101378.03;;;5.22;68.65
48606;BME280;8482;54.396;18.590;2023-04-27T03:14:02;101391.31;;;5.19;69.13
48606;BME280;8482;54.396;18.590;2023-04-27T03:16:31;101375.66;;;5.16;68.94
48606;BME280;8482;54.396;18.590;2023-04-27T03:18:57;101387.75;;;5.20;68.63
48606;BME280;8482;54.396;18.590;2023-04-27T03:21:23;101388.72;;;5.18;68.24
48606;BME280;8482;54.396;18.590;2023-04-27T03:23:49;101390.78;;;5.11;68.56
48606;BME280;8482;54.396;18.590;2023-04-27T03:26:15;101387.44;;;5.07;68.84
48606;BME280;8482;54.396;18.590;2023-04-27T03:28:41;101385.47;;;5.13;69.05
48606;BME280;8482;54.396;18.590;2023-04-27T03:31:09;101392.56;;;5.11;68.94
48606;BME280;8482;54.396;18.590;2023-04-27T03:33:36;101396.97;;;5.10;68.81
48606;BME280;8482;54.396;18.590;2023-04-27T03:36:04;101395.41;;;5.06;69.20
48606;BME280;8482;54.396;18.590;2023-04-27T03:38:30;101403.19;;;5.09;68.94
48606;BME280;8482;54.396;18.590;2023-04-27T03:40:56;101400.56;;;5.09;68.74
48606;BME280;8482;54.396;18.590;2023-04-27T03:43:23;101399.09;;;5.02;68.90
48606;BME280;8482;54.396;18.590;2023-04-27T03:45:50;101388.78;;;4.97;69.75
48606;BME280;8482;54.396;18.590;2023-04-27T03:48:16;101402.03;;;4.96;69.58
48606;BME280;8482;54.396;18.590;2023-04-27T03:50:43;101403.91;;;4.92;69.84
48606;BME280;8482;54.396;18.590;2023-04-27T03:53:10;101402.88;;;4.96;69.67
48606;BME280;8482;54.396;18.590;2023-04-27T03:55:43;101391.56;;;4.94;69.72
48606;BME280;8482;54.396;18.590;2023-04-27T03:58:10;101403.88;;;4.94;70.12
48606;BME280;8482;54.396;18.590;2023-04-27T04:00:36;101407.41;;;4.93;69.99
48606;BME280;8482;54.396;18.590;2023-04-27T04:03:06;101401.38;;;4.90;70.50
48606;BME280;8482;54.396;18.590;2023-04-27T04:05:32;101405.75;;;4.90;70.41
48606;BME280;8482;54.396;18.590;2023-04-27T04:07:58;101406.63;;;4.90;71.16
48606;BME280;8482;54.396;18.590;2023-04-27T04:10:24;101416.84;;;4.97;71.41
48606;BME280;8482;54.396;18.590;2023-04-27T04:12:51;101409.75;;;4.99;70.80
48606;BME280;8482;54.396;18.590;2023-04-27T04:15:17;101421.75;;;5.04;70.91
48606;BME280;8482;54.396;18.590;2023-04-27T04:17:44;101412.91;;;5.07;71.17
48606;BME280;8482;54.396;18.590;2023-04-27T04:20:12;101419.72;;;5.11;71.08
48606;BME280;8482;54.396;18.590;2023-04-27T04:22:38;101425.72;;;5.15;71.20
48606;BME280;8482;54.396;18.590;2023-04-27T04:25:05;101419.38;;;5.19;70.63
48606;BME280;8482;54.396;18.590;2023-04-27T04:27:31;101421.78;;;5.24;70.53
48606;BME280;8482;54.396;18.590;2023-04-27T04:29:57;101427.78;;;5.27;70.80
48606;BME280;8482;54.396;18.590;2023-04-27T04:32:26;101424.94;;;5.32;71.18
48606;BME280;8482;54.396;18.590;2023-04-27T04:34:56;101427.44;;;5.35;71.03
48606;BME280;8482;54.396;18.590;2023-04-27T04:37:23;101428.97;;;5.39;70.50
48606;BME280;8482;54.396;18.590;2023-04-27T04:39:49;101431.34;;;5.45;70.45
48606;BME280;8482;54.396;18.590;2023-04-27T04:42:15;101427.69;;;5.48;71.22
48606;BME280;8482;54.396;18.590;2023-04-27T04:44:41;101426.69;;;5.50;70.66
48606;BME280;8482;54.396;18.590;2023-04-27T04:47:07;101435.16;;;5.57;70.94
48606;BME280;8482;54.396;18.590;2023-04-27T04:49:35;101432.34;;;5.62;70.35
48606;BME280;8482;54.396;18.590;2023-04-27T04:52:01;101427.69;;;5.67;70.89
48606;BME280;8482;54.396;18.590;2023-04-27T04:54:29;101436.94;;;5.76;71.03
48606;BME280;8482;54.396;18.590;2023-04-27T04:56:55;101427.03;;;5.81;70.90
48606;BME280;8482;54.396;18.590;2023-04-27T04:59:23;101435.69;;;5.83;70.96
48606;BME280;8482;54.396;18.590;2023-04-27T05:01:49;101436.19;;;5.91;70.57
48606;BME280;8482;54.396;18.590;2023-04-27T05:04:15;101427.59;;;5.88;70.53
48606;BME280;8482;54.396;18.590;2023-04-27T05:06:42;101438.47;;;5.99;70.67
48606;BME280;8482;54.396;18.590;2023-04-27T05:09:08;101456.56;;;6.07;70.54
48606;BME280;8482;54.396;18.590;2023-04-27T05:11:34;101440.53;;;6.11;70.77
48606;BME280;8482;54.396;18.590;2023-04-27T05:14:00;101437.03;;;6.11;70.48
48606;BME280;8482;54.396;18.590;2023-04-27T05:16:26;101435.81;;;6.18;70.54
48606;BME280;8482;54.396;18.590;2023-04-27T05:18:51;101445.09;;;6.25;69.77
48606;BME280;8482;54.396;18.590;2023-04-27T05:21:19;101452.78;;;6.30;70.43
48606;BME280;8482;54.396;18.590;2023-04-27T05:23:47;101456.03;;;6.35;69.36
48606;BME280;8482;54.396;18.590;2023-04-27T05:26:14;101453.25;;;6.38;68.97
48606;BME280;8482;54.396;18.590;2023-04-27T05:28:41;101461.72;;;6.45;69.11
48606;BME280;8482;54.396;18.590;2023-04-27T05:31:07;101460.56;;;6.51;69.16
48606;BME280;8482;54.396;18.590;2023-04-27T05:33:33;101467.97;;;6.60;69.07
48606;BME280;8482;54.396;18.590;2023-04-27T05:35:58;101473.66;;;6.70;68.08
48606;BME280;8482;54.396;18.590;2023-04-27T05:38:24;101467.97;;;6.78;67.95
48606;BME280;8482;54.396;18.590;2023-04-27T05:40:55;101464.25;;;6.82;66.99
48606;BME280;8482;54.396;18.590;2023-04-27T05:43:22;101474.56;;;6.86;67.35
48606;BME280;8482;54.396;18.590;2023-04-27T05:45:48;101467.25;;;6.92;66.32
48606;BME280;8482;54.396;18.590;2023-04-27T05:48:14;101470.81;;;6.90;66.78
48606;BME280;8482;54.396;18.590;2023-04-27T05:50:40;101472.38;;;6.95;65.93
48606;BME280;8482;54.396;18.590;2023-04-27T05:53:05;101474.19;;;6.94;66.15
48606;BME280;8482;54.396;18.590;2023-04-27T05:55:32;101461.72;;;6.96;65.66
48606;BME280;8482;54.396;18.590;2023-04-27T05:57:58;101467.78;;;6.98;65.55
48606;BME280;8482;54.396;18.590;2023-04-27T06:00:24;101468.41;;;7.03;65.90
48606;BME280;8482;54.396;18.590;2023-04-27T06:02:50;101475.31;;;7.06;65.37
48606;BME280;8482;54.396;18.590;2023-04-27T06:05:16;101476.75;;;7.12;64.90
48606;BME280;8482;54.396;18.590;2023-04-27T06:07:42;101465.22;;;7.14;64.80
48606;BME280;8482;54.396;18.590;2023-04-27T06:10:09;101479.00;;;7.19;64.28
48606;BME280;8482;54.396;18.590;2023-04-27T06:12:37;101492.47;;;7.31;63.73
48606;BME280;8482;54.396;18.590;2023-04-27T06:15:04;101493.09;;;7.36;62.69
48606;BME280;8482;54.396;18.590;2023-04-27T06:17:38;101486.88;;;7.37;61.80
48606;BME280;8482;54.396;18.590;2023-04-27T06:20:05;101481.66;;;7.35;61.42
48606;BME280;8482;54.396;18.590;2023-04-27T06:22:32;101479.97;;;7.34;61.46
48606;BME280;8482;54.396;18.590;2023-04-27T06:24:58;101481.66;;;7.35;61.22
48606;BME280;8482;54.396;18.590;2023-04-27T06:27:24;101477.25;;;7.36;61.50
48606;BME280;8482;54.396;18.590;2023-04-27T06:29:50;101471.03;;;7.37;60.90
48606;BME280;8482;54.396;18.590;2023-04-27T06:32:16;101479.81;;;7.38;60.79
48606;BME280;8482;54.396;18.590;2023-04-27T06:34:42;101479.53;;;7.42;60.49
48606;BME280;8482;54.396;18.590;2023-04-27T06:37:08;101483.22;;;7.40;60.67
48606;BME280;8482;54.396;18.590;2023-04-27T06:39:34;101481.34;;;7.42;59.44
48606;BME280;8482;54.396;18.590;2023-04-27T06:42:00;101473.94;;;7.48;58.29
48606;BME280;8482;54.396;18.590;2023-04-27T06:44:25;101475.56;;;7.51;58.21
48606;BME280;8482;54.396;18.590;2023-04-27T06:46:51;101471.31;;;7.48;57.97
48606;BME280;8482;54.396;18.590;2023-04-27T06:49:17;101482.66;;;7.50;57.89
48606;BME280;8482;54.396;18.590;2023-04-27T06:51:43;101477.19;;;7.54;57.55
48606;BME280;8482;54.396;18.590;2023-04-27T06:54:11;101475.56;;;7.51;58.26
48606;BME280;8482;54.396;18.590;2023-04-27T06:56:37;101483.47;;;7.51;58.09
48606;BME280;8482;54.396;18.590;2023-04-27T06:59:03;101484.25;;;7.53;58.31
48606;BME280;8482;54.396;18.590;2023-04-27T07:01:29;101483.22;;;7.56;57.83
48606;BME280;8482;54.396;18.590;2023-04-27T07:03:55;101494.50;;;7.59;57.83
48606;BME280;8482;54.396;18.590;2023-04-27T07:06:22;101482.03;;;7.61;57.15
48606;BME280;8482;54.396;18.590;2023-04-27T07:08:50;101477.28;;;7.68;53.71
48606;BME280;8482;54.396;18.590;2023-04-27T07:11:16;101479.84;;;7.70;54.33
48606;BME280;8482;54.396;18.590;2023-04-27T07:13:42;101492.97;;;7.71;53.71
48606;BME280;8482;54.396;18.590;2023-04-27T07:16:08;101492.88;;;7.73;53.51
48606;BME280;8482;54.396;18.590;2023-04-27T07:18:34;101487.41;;;7.76;54.30
48606;BME280;8482;54.396;18.590;2023-04-27T07:21:00;101490.81;;;7.78;54.29
48606;BME280;8482;54.396;18.590;2023-04-27T07:23:26;101498.59;;;7.81;55.01
48606;BME280;8482;54.396;18.590;2023-04-27T07:25:51;101490.66;;;7.81;55.38
48606;BME280;8482;54.396;18.590;2023-04-27T07:28:18;101491.34;;;7.85;55.45
48606;BME280;8482;54.396;18.590;2023-04-27T07:30:44;101490.50;;;7.84;55.63
48606;BME280;8482;54.396;18.590;2023-04-27T07:33:11;101495.69;;;7.86;55.40
48606;BME280;8482;54.396;18.590;2023-04-27T07:35:38;101493.81;;;7.88;54.93
48606;BME280;8482;54.396;18.590;2023-04-27T07:38:04;101484.19;;;7.87;55.09
48606;BME280;8482;54.396;18.590;2023-04-27T07:40:30;101491.69;;;7.94;53.33
48606;BME280;8482;54.396;18.590;2023-04-27T07:42:57;101504.72;;;7.97;52.56
48606;BME280;8482;54.396;18.590;2023-04-27T07:45:23;101489.56;;;8.01;51.83
48606;BME280;8482;54.396;18.590;2023-04-27T07:47:59;101500.97;;;8.02;51.20
48606;BME280;8482;54.396;18.590;2023-04-27T07:50:30;101497.38;;;8.03;51.71
48606;BME280;8482;54.396;18.590;2023-04-27T07:52:56;101503.28;;;8.08;51.60
48606;BME280;8482;54.396;18.590;2023-04-27T07:55:24;101503.00;;;8.12;51.47
48606;BME280;8482;54.396;18.590;2023-04-27T07:57:55;101492.94;;;8.19;50.93
48606;BME280;8482;54.396;18.590;2023-04-27T08:00:22;101505.81;;;8.25;50.50
48606;BME280;8482;54.396;18.590;2023-04-27T08:02:52;101504.69;;;8.29;50.58
48606;BME280;8482;54.396;18.590;2023-04-27T08:05:18;101512.00;;;8.40;47.79
48606;BME280;8482;54.396;18.590;2023-04-27T08:07:44;101511.72;;;8.45;47.27
48606;BME280;8482;54.396;18.590;2023-04-27T08:10:10;101490.75;;;8.42;47.23
48606;BME280;8482;54.396;18.590;2023-04-27T08:12:36;101507.38;;;8.44;47.84
48606;BME280;8482;54.396;18.590;2023-04-27T08:15:04;101508.84;;;8.50;47.33
48606;BME280;8482;54.396;18.590;2023-04-27T08:17:30;101515.91;;;8.65;47.00
48606;BME280;8482;54.396;18.590;2023-04-27T08:19:56;101537.53;;;8.72;47.22
48606;BME280;8482;54.396;18.590;2023-04-27T08:22:21;101550.59;;;8.75;50.69
48606;BME280;8482;54.396;18.590;2023-04-27T08:24:47;101564.81;;;8.58;51.93
48606;BME280;8482;54.396;18.590;2023-04-27T08:27:13;101555.75;;;8.46;53.29
48606;BME280;8482;54.396;18.590;2023-04-27T08:29:47;101558.25;;;8.33;55.29
48606;BME280;8482;54.396;18.590;2023-04-27T08:32:14;101563.97;;;8.25;55.78
48606;BME280;8482;54.396;18.590;2023-04-27T08:34:41;101556.63;;;8.15;56.08
48606;BME280;8482;54.396;18.590;2023-04-27T08:37:07;101551.34;;;7.98;56.37
48606;BME280;8482;54.396;18.590;2023-04-27T08:39:33;101538.72;;;7.88;55.82
48606;BME280;8482;54.396;18.590;2023-04-27T08:41:59;101547.16;;;7.78;56.24
48606;BME280;8482;54.396;18.590;2023-04-27T08:44:25;101548.56;;;7.68;56.01
48606;BME280;8482;54.396;18.590;2023-04-27T08:46:51;101551.66;;;7.60;56.16
48606;BME280;8482;54.396;18.590;2023-04-27T08:49:17;101550.25;;;7.53;56.79
48606;BME280;8482;54.396;18.590;2023-04-27T08:51:43;101542.25;;;7.55;57.80
48606;BME280;8482;54.396;18.590;2023-04-27T08:54:09;101545.66;;;7.57;57.46
48606;BME280;8482;54.396;18.590;2023-04-27T08:56:34;101537.50;;;7.61;57.73
48606;BME280;8482;54.396;18.590;2023-04-27T08:59:01;101531.78;;;7.69;57.27
48606;BME280;8482;54.396;18.590;2023-04-27T09:01:29;101522.63;;;7.76;56.08
48606;BME280;8482;54.396;18.590;2023-04-27T09:04:00;101516.75;;;7.87;54.87
48606;BME280;8482;54.396;18.590;2023-04-27T09:06:34;101522.34;;;7.97;54.25
48606;BME280;8482;54.396;18.590;2023-04-27T09:09:01;101511.97;;;8.10;53.55
48606;BME280;8482;54.396;18.590;2023-04-27T09:11:34;101517.41;;;8.23;52.59
48606;BME280;8482;54.396;18.590;2023-04-27T09:14:23;101512.09;;;8.39;50.40
48606;BME280;8482;54.396;18.590;2023-04-27T09:16:57;101521.31;;;8.48;50.50
48606;BME280;8482;54.396;18.590;2023-04-27T09:19:28;101528.72;;;8.57;50.24
48606;BME280;8482;54.396;18.590;2023-04-27T09:22:09;101537.53;;;8.72;49.46
48606;BME280;8482;54.396;18.590;2023-04-27T09:24:52;101528.56;;;8.74;49.26
48606;BME280;8482;54.396;18.590;2023-04-27T09:27:21;101544.28;;;8.78;50.75
48606;BME280;8482;54.396;18.590;2023-04-27T09:29:47;101539.66;;;8.81;52.64
48606;BME280;8482;54.396;18.590;2023-04-27T09:32:17;101547.84;;;8.77;52.91
48606;BME280;8482;54.396;18.590;2023-04-27T09:34:45;101540.38;;;8.69;53.73
48606;BME280;8482;54.396;18.590;2023-04-27T09:37:13;101541.84;;;8.58;53.31
48606;BME280;8482;54.396;18.590;2023-04-27T09:39:40;101542.22;;;8.52;54.11
48606;BME280;8482;54.396;18.590;2023-04-27T09:42:07;101537.78;;;8.53;54.07
48606;BME280;8482;54.396;18.590;2023-04-27T09:44:33;101536.22;;;8.49;53.79
48606;BME280;8482;54.396;18.590;2023-04-27T09:47:01;101536.47;;;8.44;54.08
48606;BME280;8482;54.396;18.590;2023-04-27T09:49:27;101537.34;;;8.44;54.54
48606;BME280;8482;54.396;18.590;2023-04-27T09:51:57;101544.22;;;8.47;54.99
48606;BME280;8482;54.396;18.590;2023-04-27T09:54:28;101542.28;;;8.51;54.61
48606;BME280;8482;54.396;18.590;2023-04-27T10:04:00;101588.09;;;8.51;58.01
48606;BME280;8482;54.396;18.590;2023-04-27T10:07:09;101602.06;;;8.37;59.99
48606;BME280;8482;54.396;18.590;2023-04-27T10:09:46;101608.28;;;8.20;61.94
48606;BME280;8482;54.396;18.590;2023-04-27T10:12:32;101589.03;;;8.02;62.56
48606;BME280;8482;54.396;18.590;2023-04-27T10:15:14;101586.94;;;7.91;63.92
48606;BME280;8482;54.396;18.590;2023-04-27T10:17:50;101579.63;;;7.80;64.52
48606;BME280;8482;54.396;18.590;2023-04-27T10:20:32;101579.69;;;7.79;66.21
48606;BME280;8482;54.396;18.590;2023-04-27T10:22:58;101579.38;;;7.85;65.88
48606;BME280;8482;54.396;18.590;2023-04-27T10:25:37;101592.41;;;7.88;64.96
48606;BME280;8482;54.396;18.590;2023-04-27T10:28:03;101600.63;;;8.00;63.48
48606;BME280;8482;54.396;18.590;2023-04-27T10:30:43;101580.22;;;8.02;61.83
48606;BME280;8482;54.396;18.590;2023-04-27T10:33:10;101571.63;;;7.98;60.70
48606;BME280;8482;54.396;18.590;2023-04-27T10:35:54;101559.69;;;7.91;60.46
48606;BME280;8482;54.396;18.590;2023-04-27T10:38:27;101572.66;;;7.95;57.02
48606;BME280;8482;54.396;18.590;2023-04-27T10:40:59;101567.38;;;7.95;57.46
48606;BME280;8482;54.396;18.590;2023-04-27T10:43:29;101565.31;;;8.01;56.44
48606;BME280;8482;54.396;18.590;2023-04-27T10:46:13;101569.50;;;8.05;56.98
48606;BME280;8482;54.396;18.590;2023-04-27T10:48:42;101567.88;;;8.18;53.70
48606;BME280;8482;54.396;18.590;2023-04-27T10:51:08;101560.81;;;8.19;54.80
48606;BME280;8482;54.396;18.590;2023-04-27T10:53:38;101560.38;;;8.26;55.83
48606;BME280;8482;54.396;18.590;2023-04-27T10:56:04;101559.09;;;8.34;55.18
48606;BME280;8482;54.396;18.590;2023-04-27T10:58:33;101561.91;;;8.47;55.20
48606;BME280;8482;54.396;18.590;2023-04-27T11:00:59;101558.47;;;8.61;55.06
48606;BME280;8482;54.396;18.590;2023-04-27T11:03:25;101549.72;;;8.74;54.82
48606;BME280;8482;54.396;18.590;2023-04-27T11:06:03;101552.91;;;8.96;50.66
48606;BME280;8482;54.396;18.590;2023-04-27T11:08:30;101554.56;;;9.13;50.49
48606;BME280;8482;54.396;18.590;2023-04-27T11:10:57;101547.00;;;9.21;50.08
48606;BME280;8482;54.396;18.590;2023-04-27T11:13:25;101562.16;;;9.33;49.89
48606;BME280;8482;54.396;18.590;2023-04-27T11:15:58;101553.47;;;9.46;49.58
48606;BME280;8482;54.396;18.590;2023-04-27T11:18:29;101561.78;;;9.54;49.08
48606;BME280;8482;54.396;18.590;2023-04-27T11:21:17;101543.34;;;9.67;48.77
48606;BME280;8482;54.396;18.590;2023-04-27T11:23:45;101554.75;;;9.82;48.68
48606;BME280;8482;54.396;18.590;2023-04-27T11:26:16;101554.84;;;9.95;49.11
48606;BME280;8482;54.396;18.590;2023-04-27T11:28:56;101546.94;;;10.08;48.23
48606;BME280;8482;54.396;18.590;2023-04-27T11:31:24;101552.63;;;10.16;47.72
48606;BME280;8482;54.396;18.590;2023-04-27T11:33:50;101554.03;;;10.22;47.75
48606;BME280;8482;54.396;18.590;2023-04-27T11:36:22;101567.81;;;10.27;47.55
48606;BME280;8482;54.396;18.590;2023-04-27T11:38:48;101573.56;;;10.34;46.08
48606;BME280;8482;54.396;18.590;2023-04-27T11:41:14;101567.56;;;10.32;45.38
48606;BME280;8482;54.396;18.590;2023-04-27T11:43:42;101566.13;;;10.26;44.84
48606;BME280;8482;54.396;18.590;2023-04-27T11:46:10;101567.19;;;10.23;45.38
48606;BME280;8482;54.396;18.590;2023-04-27T11:48:38;101574.75;;;10.30;43.88
48606;BME280;8482;54.396;18.590;2023-04-27T11:51:06;101567.25;;;10.36;42.99
48606;BME280;8482;54.396;18.590;2023-04-27T11:53:37;101558.91;;;10.42;42.65
48606;BME280;8482;54.396;18.590;2023-04-27T11:56:06;101560.66;;;10.56;41.75
48606;BME280;8482;54.396;18.590;2023-04-27T11:58:36;101573.00;;;10.70;42.01
48606;BME280;8482;54.396;18.590;2023-04-27T12:01:04;101566.88;;;10.83;42.34
48606;BME280;8482;54.396;18.590;2023-04-27T12:03:30;101572.09;;;10.97;41.42
48606;BME280;8482;54.396;18.590;2023-04-27T12:05:56;101580.81;;;11.12;40.23
48606;BME280;8482;54.396;18.590;2023-04-27T12:08:23;101579.59;;;11.31;39.51
48606;BME280;8482;54.396;18.590;2023-04-27T12:10:49;101593.84;;;11.43;37.76
48606;BME280;8482;54.396;18.590;2023-04-27T12:13:16;101571.72;;;11.55;35.55
48606;BME280;8482;54.396;18.590;2023-04-27T12:15:42;101565.75;;;11.64;36.11
48606;BME280;8482;54.396;18.590;2023-04-27T12:18:08;101576.78;;;11.84;35.58
48606;BME280;8482;54.396;18.590;2023-04-27T12:20:35;101564.22;;;11.86;36.14
48606;BME280;8482;54.396;18.590;2023-04-27T12:23:01;101583.47;;;11.90;36.74
48606;BME280;8482;54.396;18.590;2023-04-27T12:25:28;101582.53;;;11.91;35.50
48606;BME280;8482;54.396;18.590;2023-04-27T12:27:53;101581.66;;;11.90;34.47
48606;BME280;8482;54.396;18.590;2023-04-27T12:30:22;101582.38;;;12.05;34.39
48606;BME280;8482;54.396;18.590;2023-04-27T12:32:48;101577.41;;;12.01;35.02
48606;BME280;8482;54.396;18.590;2023-04-27T12:35:14;101576.84;;;12.08;35.31
48606;BME280;8482;54.396;18.590;2023-04-27T12:37:40;101584.63;;;12.11;34.97
48606;BME280;8482;54.396;18.590;2023-04-27T12:40:07;101583.19;;;12.19;35.41
48606;BME280;8482;54.396;18.590;2023-04-27T12:42:34;101584.00;;;12.32;34.42
48606;BME280;8482;54.396;18.590;2023-04-27T12:45:00;101603.16;;;12.37;35.66
48606;BME280;8482;54.396;18.590;2023-04-27T12:47:27;101591.38;;;12.53;34.68
48606;BME280;8482;54.396;18.590;2023-04-27T12:49:52;101598.56;;;12.64;33.51
48606;BME280;8482;54.396;18.590;2023-04-27T12:52:18;101594.25;;;12.74;33.08
48606;BME280;8482;54.396;18.590;2023-04-27T12:54:44;101589.47;;;12.91;32.43
48606;BME280;8482;54.396;18.590;2023-04-27T12:57:11;101594.94;;;13.00;32.13
48606;BME280;8482;54.396;18.590;2023-04-27T12:59:38;101591.84;;;13.07;33.19
48606;BME280;8482;54.396;18.590;2023-04-27T13:02:04;101605.44;;;13.26;34.28
48606;BME280;8482;54.396;18.590;2023-04-27T13:04:32;101618.91;;;13.36;34.79
48606;BME280;8482;54.396;18.590;2023-04-27T13:06:59;101620.00;;;13.33;35.52
48606;BME280;8482;54.396;18.590;2023-04-27T13:09:28;101612.44;;;13.27;35.18